Archival Weather

Heathrow

London, United Kingdom (EGLL)

Report from: Tuesday, June 18, 2024 6:50 AM BST
Current time: Friday, July 19, 2024 2:47 AM BST

Current weather – Weather history – Daily summaries
Weather forecast

Temperature14.0°C (57.2°F)
Dew point9.0°C (48.2°F)
Winds 7 kts (3.6 m/s, 8.1 mph) Vrb
Winds variableWinds variable from North (350°) to East-Northeast (60°)
Visibility6.2 mi. (10 km)
Clouds Sky clear
Altimeter29.94 in.Hg (1014 mB)
Relative humidity72 %
Density altitude20 ft. (6 m)
Remarks Fully automated report
No clouds detected
Flight conditions Visual Meteorological Conditions
Raw dataEGLL 180550Z AUTO 03007KT 350V060 9999 NCD 14/09 Q1014
An error has occurred. This application may no longer respond until reloaded. Reload 🗙